sensor_id;sensor_type;location;lat;lon;timestamp;P1;durP1;ratioP1;P2;durP2;ratioP2
2474;SDS011;1248;48.694;10.160;2023-02-21T00:00:28;9.43;;;5.13;;
2474;SDS011;1248;48.694;10.160;2023-02-21T00:03:14;5.33;;;4.87;;
2474;SDS011;1248;48.694;10.160;2023-02-21T00:05:59;5.60;;;5.10;;
2474;SDS011;1248;48.694;10.160;2023-02-21T00:08:43;7.23;;;4.43;;
2474;SDS011;1248;48.694;10.160;2023-02-21T00:11:27;6.13;;;4.83;;
2474;SDS011;1248;48.694;10.160;2023-02-21T00:14:12;10.63;;;5.10;;
2474;SDS011;1248;48.694;10.160;2023-02-21T00:16:56;7.23;;;4.33;;
2474;SDS011;1248;48.694;10.160;2023-02-21T00:19:42;5.80;;;4.30;;
2474;SDS011;1248;48.694;10.160;2023-02-21T00:22:26;5.63;;;4.53;;
2474;SDS011;1248;48.694;10.160;2023-02-21T00:25:11;5.73;;;4.67;;
2474;SDS011;1248;48.694;10.160;2023-02-21T00:27:55;6.17;;;4.77;;
2474;SDS011;1248;48.694;10.160;2023-02-21T00:30:40;6.80;;;5.10;;
2474;SDS011;1248;48.694;10.160;2023-02-21T00:33:24;9.23;;;5.57;;
2474;SDS011;1248;48.694;10.160;2023-02-21T00:36:14;16.30;;;6.90;;
2474;SDS011;1248;48.694;10.160;2023-02-21T00:38:59;28.33;;;15.20;;
2474;SDS011;1248;48.694;10.160;2023-02-21T00:41:43;23.43;;;12.93;;
2474;SDS011;1248;48.694;10.160;2023-02-21T00:44:28;18.03;;;10.10;;
2474;SDS011;1248;48.694;10.160;2023-02-21T00:47:12;9.30;;;6.70;;
2474;SDS011;1248;48.694;10.160;2023-02-21T00:49:56;20.47;;;11.20;;
2474;SDS011;1248;48.694;10.160;2023-02-21T00:52:42;42.13;;;20.00;;
2474;SDS011;1248;48.694;10.160;2023-02-21T00:55:27;27.23;;;13.10;;
2474;SDS011;1248;48.694;10.160;2023-02-21T00:58:11;21.00;;;11.37;;
2474;SDS011;1248;48.694;10.160;2023-02-21T01:00:56;25.80;;;12.70;;
2474;SDS011;1248;48.694;10.160;2023-02-21T01:03:40;26.23;;;11.80;;
2474;SDS011;1248;48.694;10.160;2023-02-21T01:06:25;18.13;;;10.07;;
2474;SDS011;1248;48.694;10.160;2023-02-21T01:09:11;22.30;;;11.07;;
2474;SDS011;1248;48.694;10.160;2023-02-21T01:11:55;17.03;;;8.77;;
2474;SDS011;1248;48.694;10.160;2023-02-21T01:14:39;14.20;;;9.10;;
2474;SDS011;1248;48.694;10.160;2023-02-21T01:17:24;19.97;;;10.33;;
2474;SDS011;1248;48.694;10.160;2023-02-21T01:20:09;13.57;;;9.10;;
2474;SDS011;1248;48.694;10.160;2023-02-21T01:22:53;14.20;;;8.93;;
2474;SDS011;1248;48.694;10.160;2023-02-21T01:25:39;12.47;;;9.60;;
2474;SDS011;1248;48.694;10.160;2023-02-21T01:28:24;14.60;;;9.40;;
2474;SDS011;1248;48.694;10.160;2023-02-21T01:31:08;20.40;;;10.57;;
2474;SDS011;1248;48.694;10.160;2023-02-21T01:33:52;21.50;;;9.20;;
2474;SDS011;1248;48.694;10.160;2023-02-21T01:36:39;21.10;;;9.13;;
2474;SDS011;1248;48.694;10.160;2023-02-21T01:39:23;12.93;;;6.57;;
2474;SDS011;1248;48.694;10.160;2023-02-21T01:42:09;11.03;;;7.93;;
2474;SDS011;1248;48.694;10.160;2023-02-21T01:45:05;17.10;;;8.33;;
2474;SDS011;1248;48.694;10.160;2023-02-21T01:48:26;15.43;;;8.97;;
2474;SDS011;1248;48.694;10.160;2023-02-21T01:51:13;13.77;;;7.97;;
2474;SDS011;1248;48.694;10.160;2023-02-21T01:54:00;19.93;;;8.80;;
2474;SDS011;1248;48.694;10.160;2023-02-21T01:56:44;12.10;;;7.70;;
2474;SDS011;1248;48.694;10.160;2023-02-21T01:59:30;13.10;;;8.30;;
2474;SDS011;1248;48.694;10.160;2023-02-21T02:02:16;14.33;;;8.70;;
2474;SDS011;1248;48.694;10.160;2023-02-21T02:05:03;14.93;;;9.17;;
2474;SDS011;1248;48.694;10.160;2023-02-21T02:07:48;9.80;;;7.87;;
2474;SDS011;1248;48.694;10.160;2023-02-21T02:10:34;11.00;;;7.00;;
2474;SDS011;1248;48.694;10.160;2023-02-21T02:13:25;11.37;;;8.27;;
2474;SDS011;1248;48.694;10.160;2023-02-21T02:16:06;10.63;;;7.50;;
2474;SDS011;1248;48.694;10.160;2023-02-21T02:18:48;11.10;;;7.93;;
2474;SDS011;1248;48.694;10.160;2023-02-21T02:21:36;12.13;;;8.50;;
2474;SDS011;1248;48.694;10.160;2023-02-21T02:27:32;12.63;;;8.00;;
2474;SDS011;1248;48.694;10.160;2023-02-21T02:30:40;11.43;;;6.50;;
2474;SDS011;1248;48.694;10.160;2023-02-21T02:36:14;11.73;;;8.30;;
2474;SDS011;1248;48.694;10.160;2023-02-21T02:38:46;23.20;;;8.30;;
2474;SDS011;1248;48.694;10.160;2023-02-21T02:41:21;16.03;;;7.77;;
2474;SDS011;1248;48.694;10.160;2023-02-21T02:43:51;12.70;;;7.40;;
2474;SDS011;1248;48.694;10.160;2023-02-21T02:46:22;12.00;;;7.47;;
2474;SDS011;1248;48.694;10.160;2023-02-21T02:48:52;15.27;;;7.90;;
2474;SDS011;1248;48.694;10.160;2023-02-21T02:51:23;11.00;;;7.90;;
2474;SDS011;1248;48.694;10.160;2023-02-21T02:53:52;17.07;;;10.07;;
2474;SDS011;1248;48.694;10.160;2023-02-21T02:56:19;12.50;;;8.40;;
2474;SDS011;1248;48.694;10.160;2023-02-21T02:58:49;12.80;;;6.97;;
2474;SDS011;1248;48.694;10.160;2023-02-21T03:01:32;9.83;;;7.40;;
2474;SDS011;1248;48.694;10.160;2023-02-21T03:04:12;7.27;;;6.10;;
2474;SDS011;1248;48.694;10.160;2023-02-21T03:06:53;11.73;;;6.03;;
2474;SDS011;1248;48.694;10.160;2023-02-21T03:09:28;10.03;;;6.20;;
2474;SDS011;1248;48.694;10.160;2023-02-21T03:12:00;13.30;;;7.63;;
2474;SDS011;1248;48.694;10.160;2023-02-21T03:14:33;12.07;;;6.67;;
2474;SDS011;1248;48.694;10.160;2023-02-21T03:17:03;10.40;;;6.37;;
2474;SDS011;1248;48.694;10.160;2023-02-21T03:19:34;11.93;;;7.33;;
2474;SDS011;1248;48.694;10.160;2023-02-21T03:22:06;8.13;;;7.17;;
2474;SDS011;1248;48.694;10.160;2023-02-21T03:24:34;11.03;;;6.73;;
2474;SDS011;1248;48.694;10.160;2023-02-21T03:27:03;12.27;;;6.97;;
2474;SDS011;1248;48.694;10.160;2023-02-21T03:29:32;8.50;;;6.90;;
2474;SDS011;1248;48.694;10.160;2023-02-21T03:32:02;11.13;;;7.30;;
2474;SDS011;1248;48.694;10.160;2023-02-21T03:34:35;16.70;;;6.30;;
2474;SDS011;1248;48.694;10.160;2023-02-21T03:37:04;15.57;;;8.73;;
2474;SDS011;1248;48.694;10.160;2023-02-21T03:39:31;9.80;;;6.23;;
2474;SDS011;1248;48.694;10.160;2023-02-21T03:41:58;9.70;;;7.30;;
2474;SDS011;1248;48.694;10.160;2023-02-21T03:44:25;16.60;;;6.90;;
2474;SDS011;1248;48.694;10.160;2023-02-21T03:46:52;9.43;;;5.80;;
2474;SDS011;1248;48.694;10.160;2023-02-21T03:49:19;16.27;;;7.03;;
2474;SDS011;1248;48.694;10.160;2023-02-21T03:51:46;12.40;;;5.93;;
2474;SDS011;1248;48.694;10.160;2023-02-21T03:54:15;14.23;;;6.37;;
2474;SDS011;1248;48.694;10.160;2023-02-21T03:56:42;10.90;;;6.03;;
2474;SDS011;1248;48.694;10.160;2023-02-21T03:59:09;8.13;;;5.53;;
2474;SDS011;1248;48.694;10.160;2023-02-21T04:01:36;6.73;;;5.23;;
2474;SDS011;1248;48.694;10.160;2023-02-21T04:04:03;8.67;;;5.90;;
2474;SDS011;1248;48.694;10.160;2023-02-21T04:06:30;8.60;;;6.03;;
2474;SDS011;1248;48.694;10.160;2023-02-21T04:08:57;12.23;;;6.60;;
2474;SDS011;1248;48.694;10.160;2023-02-21T04:11:25;6.40;;;5.33;;
2474;SDS011;1248;48.694;10.160;2023-02-21T04:13:52;7.37;;;5.13;;
2474;SDS011;1248;48.694;10.160;2023-02-21T04:16:19;5.40;;;4.73;;
2474;SDS011;1248;48.694;10.160;2023-02-21T04:18:46;10.33;;;6.13;;
2474;SDS011;1248;48.694;10.160;2023-02-21T04:21:15;7.37;;;5.60;;
2474;SDS011;1248;48.694;10.160;2023-02-21T04:23:42;9.63;;;5.70;;
2474;SDS011;1248;48.694;10.160;2023-02-21T04:26:09;8.30;;;5.30;;
2474;SDS011;1248;48.694;10.160;2023-02-21T04:28:37;8.50;;;5.37;;
2474;SDS011;1248;48.694;10.160;2023-02-21T04:31:05;7.50;;;5.10;;
2474;SDS011;1248;48.694;10.160;2023-02-21T04:33:32;7.90;;;6.00;;
2474;SDS011;1248;48.694;10.160;2023-02-21T04:35:59;12.27;;;6.33;;
2474;SDS011;1248;48.694;10.160;2023-02-21T04:38:26;8.30;;;5.10;;
2474;SDS011;1248;48.694;10.160;2023-02-21T04:40:53;7.80;;;5.10;;
2474;SDS011;1248;48.694;10.160;2023-02-21T04:43:20;7.87;;;5.63;;
2474;SDS011;1248;48.694;10.160;2023-02-21T04:45:48;11.53;;;6.50;;
2474;SDS011;1248;48.694;10.160;2023-02-21T04:48:15;9.97;;;6.23;;
2474;SDS011;1248;48.694;10.160;2023-02-21T04:50:42;8.60;;;6.27;;
2474;SDS011;1248;48.694;10.160;2023-02-21T04:53:09;11.33;;;6.00;;
2474;SDS011;1248;48.694;10.160;2023-02-21T04:55:36;9.97;;;6.03;;
2474;SDS011;1248;48.694;10.160;2023-02-21T04:58:03;7.77;;;5.40;;
2474;SDS011;1248;48.694;10.160;2023-02-21T05:00:31;11.83;;;5.80;;
2474;SDS011;1248;48.694;10.160;2023-02-21T05:02:59;13.13;;;6.47;;
2474;SDS011;1248;48.694;10.160;2023-02-21T05:05:26;6.63;;;5.83;;
2474;SDS011;1248;48.694;10.160;2023-02-21T05:07:53;14.20;;;5.97;;
2474;SDS011;1248;48.694;10.160;2023-02-21T05:10:20;12.43;;;6.07;;
2474;SDS011;1248;48.694;10.160;2023-02-21T05:12:47;7.73;;;6.10;;
2474;SDS011;1248;48.694;10.160;2023-02-21T05:15:15;8.87;;;5.73;;
2474;SDS011;1248;48.694;10.160;2023-02-21T05:17:42;10.97;;;6.13;;
2474;SDS011;1248;48.694;10.160;2023-02-21T05:20:12;11.73;;;6.07;;
2474;SDS011;1248;48.694;10.160;2023-02-21T05:22:39;6.83;;;6.10;;
2474;SDS011;1248;48.694;10.160;2023-02-21T05:25:09;9.80;;;6.80;;
2474;SDS011;1248;48.694;10.160;2023-02-21T05:27:40;8.40;;;5.10;;
2474;SDS011;1248;48.694;10.160;2023-02-21T05:30:08;6.43;;;5.47;;
2474;SDS011;1248;48.694;10.160;2023-02-21T05:32:36;8.50;;;6.30;;
2474;SDS011;1248;48.694;10.160;2023-02-21T05:35:03;10.63;;;7.10;;
2474;SDS011;1248;48.694;10.160;2023-02-21T05:37:32;16.60;;;6.60;;
2474;SDS011;1248;48.694;10.160;2023-02-21T05:39:59;18.43;;;6.93;;
2474;SDS011;1248;48.694;10.160;2023-02-21T05:42:26;7.87;;;6.97;;
2474;SDS011;1248;48.694;10.160;2023-02-21T05:44:53;12.00;;;7.80;;
2474;SDS011;1248;48.694;10.160;2023-02-21T05:47:20;12.33;;;6.67;;
2474;SDS011;1248;48.694;10.160;2023-02-21T05:49:47;8.50;;;6.30;;
2474;SDS011;1248;48.694;10.160;2023-02-21T05:52:14;11.37;;;7.33;;
2474;SDS011;1248;48.694;10.160;2023-02-21T05:54:44;13.80;;;8.33;;
2474;SDS011;1248;48.694;10.160;2023-02-21T05:57:11;10.23;;;6.30;;
2474;SDS011;1248;48.694;10.160;2023-02-21T05:59:38;10.53;;;7.20;;
2474;SDS011;1248;48.694;10.160;2023-02-21T06:02:05;9.67;;;5.57;;
2474;SDS011;1248;48.694;10.160;2023-02-21T06:04:32;7.87;;;6.23;;
2474;SDS011;1248;48.694;10.160;2023-02-21T06:06:59;5.93;;;4.77;;
2474;SDS011;1248;48.694;10.160;2023-02-21T06:09:26;8.47;;;6.60;;
2474;SDS011;1248;48.694;10.160;2023-02-21T06:11:55;9.83;;;6.43;;
2474;SDS011;1248;48.694;10.160;2023-02-21T06:14:23;6.00;;;5.40;;
2474;SDS011;1248;48.694;10.160;2023-02-21T06:16:50;8.90;;;5.43;;
2474;SDS011;1248;48.694;10.160;2023-02-21T06:19:17;7.47;;;6.33;;
2474;SDS011;1248;48.694;10.160;2023-02-21T06:21:44;8.03;;;7.03;;
2474;SDS011;1248;48.694;10.160;2023-02-21T06:24:12;16.97;;;8.07;;
2474;SDS011;1248;48.694;10.160;2023-02-21T06:26:39;19.80;;;10.33;;
2474;SDS011;1248;48.694;10.160;2023-02-21T06:29:08;15.33;;;7.97;;
2474;SDS011;1248;48.694;10.160;2023-02-21T06:31:36;11.73;;;6.47;;
2474;SDS011;1248;48.694;10.160;2023-02-21T06:34:03;16.37;;;9.00;;
2474;SDS011;1248;48.694;10.160;2023-02-21T06:36:31;13.30;;;8.60;;
2474;SDS011;1248;48.694;10.160;2023-02-21T06:38:58;11.37;;;7.80;;
2474;SDS011;1248;48.694;10.160;2023-02-21T06:41:25;10.67;;;8.40;;
2474;SDS011;1248;48.694;10.160;2023-02-21T06:43:54;13.63;;;7.80;;
2474;SDS011;1248;48.694;10.160;2023-02-21T06:46:25;11.03;;;8.67;;
2474;SDS011;1248;48.694;10.160;2023-02-21T06:48:53;17.50;;;8.73;;
2474;SDS011;1248;48.694;10.160;2023-02-21T06:51:20;17.20;;;8.17;;
2474;SDS011;1248;48.694;10.160;2023-02-21T06:53:53;12.80;;;8.20;;
2474;SDS011;1248;48.694;10.160;2023-02-21T06:56:21;14.63;;;8.10;;
2474;SDS011;1248;48.694;10.160;2023-02-21T06:58:48;17.17;;;8.60;;
2474;SDS011;1248;48.694;10.160;2023-02-21T07:01:15;15.03;;;8.30;;
2474;SDS011;1248;48.694;10.160;2023-02-21T07:03:43;9.50;;;8.00;;
2474;SDS011;1248;48.694;10.160;2023-02-21T07:06:11;16.77;;;8.23;;
2474;SDS011;1248;48.694;10.160;2023-02-21T07:08:39;12.83;;;8.10;;
2474;SDS011;1248;48.694;10.160;2023-02-21T07:11:06;14.13;;;8.20;;
2474;SDS011;1248;48.694;10.160;2023-02-21T07:13:33;16.47;;;9.27;;
2474;SDS011;1248;48.694;10.160;2023-02-21T07:16:00;13.27;;;8.00;;
2474;SDS011;1248;48.694;10.160;2023-02-21T07:18:28;10.53;;;8.87;;
2474;SDS011;1248;48.694;10.160;2023-02-21T07:20:56;8.97;;;8.10;;
2474;SDS011;1248;48.694;10.160;2023-02-21T07:23:23;16.20;;;8.17;;
2474;SDS011;1248;48.694;10.160;2023-02-21T07:25:50;11.47;;;7.43;;
2474;SDS011;1248;48.694;10.160;2023-02-21T07:28:17;10.00;;;6.87;;
2474;SDS011;1248;48.694;10.160;2023-02-21T07:30:45;20.83;;;8.43;;
2474;SDS011;1248;48.694;10.160;2023-02-21T07:33:12;16.70;;;7.83;;
2474;SDS011;1248;48.694;10.160;2023-02-21T07:35:39;11.43;;;7.00;;
2474;SDS011;1248;48.694;10.160;2023-02-21T07:38:08;11.53;;;7.97;;
2474;SDS011;1248;48.694;10.160;2023-02-21T07:40:35;12.30;;;6.45;;
2474;SDS011;1248;48.694;10.160;2023-02-21T07:43:02;15.13;;;7.73;;
2474;SDS011;1248;48.694;10.160;2023-02-21T07:45:29;13.13;;;7.40;;
2474;SDS011;1248;48.694;10.160;2023-02-21T07:47:56;9.13;;;7.67;;
2474;SDS011;1248;48.694;10.160;2023-02-21T07:50:22;9.43;;;7.37;;
2474;SDS011;1248;48.694;10.160;2023-02-21T07:52:49;12.90;;;6.87;;
2474;SDS011;1248;48.694;10.160;2023-02-21T07:55:18;8.80;;;7.33;;
2474;SDS011;1248;48.694;10.160;2023-02-21T07:57:46;16.53;;;8.90;;
2474;SDS011;1248;48.694;10.160;2023-02-21T08:00:13;12.43;;;7.20;;
2474;SDS011;1248;48.694;10.160;2023-02-21T08:02:40;10.60;;;6.60;;
2474;SDS011;1248;48.694;10.160;2023-02-21T08:05:08;7.20;;;6.07;;
2474;SDS011;1248;48.694;10.160;2023-02-21T08:07:35;12.40;;;7.37;;
2474;SDS011;1248;48.694;10.160;2023-02-21T08:10:02;10.67;;;6.77;;
2474;SDS011;1248;48.694;10.160;2023-02-21T08:12:31;11.97;;;7.07;;
2474;SDS011;1248;48.694;10.160;2023-02-21T08:14:58;13.17;;;7.23;;
2474;SDS011;1248;48.694;10.160;2023-02-21T08:17:25;9.33;;;6.50;;
2474;SDS011;1248;48.694;10.160;2023-02-21T08:19:52;8.27;;;6.33;;
2474;SDS011;1248;48.694;10.160;2023-02-21T08:22:19;12.70;;;7.10;;
2474;SDS011;1248;48.694;10.160;2023-02-21T08:24:47;10.77;;;6.50;;
2474;SDS011;1248;48.694;10.160;2023-02-21T08:27:15;10.50;;;6.77;;
2474;SDS011;1248;48.694;10.160;2023-02-21T08:29:43;16.03;;;7.50;;
2474;SDS011;1248;48.694;10.160;2023-02-21T08:32:10;11.30;;;7.00;;
2474;SDS011;1248;48.694;10.160;2023-02-21T08:34:37;12.07;;;7.07;;
2474;SDS011;1248;48.694;10.160;2023-02-21T08:37:04;10.27;;;6.20;;
2474;SDS011;1248;48.694;10.160;2023-02-21T08:39:39;11.50;;;6.13;;
2474;SDS011;1248;48.694;10.160;2023-02-21T08:42:06;11.03;;;5.53;;
2474;SDS011;1248;48.694;10.160;2023-02-21T08:44:33;9.63;;;6.17;;
2474;SDS011;1248;48.694;10.160;2023-02-21T08:47:01;10.33;;;6.70;;
2474;SDS011;1248;48.694;10.160;2023-02-21T08:49:28;7.20;;;6.33;;
2474;SDS011;1248;48.694;10.160;2023-02-21T08:51:55;9.07;;;6.23;;
2474;SDS011;1248;48.694;10.160;2023-02-21T08:54:22;11.57;;;6.30;;
2474;SDS011;1248;48.694;10.160;2023-02-21T08:56:49;10.10;;;6.80;;
2474;SDS011;1248;48.694;10.160;2023-02-21T08:59:16;10.90;;;6.03;;
2474;SDS011;1248;48.694;10.160;2023-02-21T09:01:43;6.47;;;5.50;;
2474;SDS011;1248;48.694;10.160;2023-02-21T09:04:12;13.57;;;5.80;;
2474;SDS011;1248;48.694;10.160;2023-02-21T09:06:39;7.63;;;5.70;;
2474;SDS011;1248;48.694;10.160;2023-02-21T09:09:06;9.90;;;6.10;;
2474;SDS011;1248;48.694;10.160;2023-02-21T09:11:33;15.60;;;6.50;;
2474;SDS011;1248;48.694;10.160;2023-02-21T09:14:00;8.70;;;4.70;;
2474;SDS011;1248;48.694;10.160;2023-02-21T09:16:30;8.00;;;4.73;;
2474;SDS011;1248;48.694;10.160;2023-02-21T09:18:58;12.20;;;5.13;;
2474;SDS011;1248;48.694;10.160;2023-02-21T09:21:27;15.87;;;5.67;;
2474;SDS011;1248;48.694;10.160;2023-02-21T09:23:54;10.97;;;5.33;;
2474;SDS011;1248;48.694;10.160;2023-02-21T09:26:23;9.50;;;5.87;;
2474;SDS011;1248;48.694;10.160;2023-02-21T09:28:51;8.80;;;5.80;;
2474;SDS011;1248;48.694;10.160;2023-02-21T09:31:18;17.50;;;6.17;;
2474;SDS011;1248;48.694;10.160;2023-02-21T09:33:45;12.57;;;5.10;;
2474;SDS011;1248;48.694;10.160;2023-02-21T09:36:12;12.17;;;5.13;;
2474;SDS011;1248;48.694;10.160;2023-02-21T09:38:41;5.43;;;3.27;;
2474;SDS011;1248;48.694;10.160;2023-02-21T09:41:09;17.60;;;3.80;;
2474;SDS011;1248;48.694;10.160;2023-02-21T09:43:38;8.33;;;3.10;;
2474;SDS011;1248;48.694;10.160;2023-02-21T09:46:10;4.27;;;3.80;;
2474;SDS011;1248;48.694;10.160;2023-02-21T09:48:40;6.23;;;3.10;;
2474;SDS011;1248;48.694;10.160;2023-02-21T09:51:08;4.10;;;3.10;;
2474;SDS011;1248;48.694;10.160;2023-02-21T09:53:38;8.50;;;2.77;;
2474;SDS011;1248;48.694;10.160;2023-02-21T09:56:11;4.63;;;2.23;;
2474;SDS011;1248;48.694;10.160;2023-02-21T09:58:44;2.70;;;2.20;;
2474;SDS011;1248;48.694;10.160;2023-02-21T10:01:14;2.87;;;2.10;;
2474;SDS011;1248;48.694;10.160;2023-02-21T10:03:49;2.50;;;1.80;;
2474;SDS011;1248;48.694;10.160;2023-02-21T10:06:24;9.03;;;2.17;;
2474;SDS011;1248;48.694;10.160;2023-02-21T10:08:56;4.40;;;2.27;;
2474;SDS011;1248;48.694;10.160;2023-02-21T10:11:35;3.40;;;2.00;;
2474;SDS011;1248;48.694;10.160;2023-02-21T10:14:12;2.17;;;1.70;;
2474;SDS011;1248;48.694;10.160;2023-02-21T10:16:46;7.63;;;2.20;;
2474;SDS011;1248;48.694;10.160;2023-02-21T10:19:20;3.93;;;2.27;;
2474;SDS011;1248;48.694;10.160;2023-02-21T10:21:51;4.30;;;1.93;;
2474;SDS011;1248;48.694;10.160;2023-02-21T10:24:20;2.27;;;2.07;;
2474;SDS011;1248;48.694;10.160;2023-02-21T10:26:51;3.57;;;2.07;;
2474;SDS011;1248;48.694;10.160;2023-02-21T10:29:23;8.10;;;2.20;;
2474;SDS011;1248;48.694;10.160;2023-02-21T10:31:51;3.07;;;2.23;;
2474;SDS011;1248;48.694;10.160;2023-02-21T10:34:22;4.50;;;1.90;;
2474;SDS011;1248;48.694;10.160;2023-02-21T10:36:51;2.17;;;1.90;;
2474;SDS011;1248;48.694;10.160;2023-02-21T10:39:19;4.37;;;1.60;;
2474;SDS011;1248;48.694;10.160;2023-02-21T10:41:49;5.03;;;1.60;;
2474;SDS011;1248;48.694;10.160;2023-02-21T10:44:17;5.43;;;1.90;;
2474;SDS011;1248;48.694;10.160;2023-02-21T10:46:48;3.67;;;1.50;;
2474;SDS011;1248;48.694;10.160;2023-02-21T10:49:21;3.27;;;1.40;;
2474;SDS011;1248;48.694;10.160;2023-02-21T10:52:03;2.77;;;1.60;;
2474;SDS011;1248;48.694;10.160;2023-02-21T10:54:32;2.43;;;1.50;;
2474;SDS011;1248;48.694;10.160;2023-02-21T10:57:01;2.27;;;1.50;;
2474;SDS011;1248;48.694;10.160;2023-02-21T10:59:30;4.83;;;1.40;;
2474;SDS011;1248;48.694;10.160;2023-02-21T11:01:58;4.33;;;1.97;;
2474;SDS011;1248;48.694;10.160;2023-02-21T11:04:26;1.77;;;1.57;;
2474;SDS011;1248;48.694;10.160;2023-02-21T11:06:57;3.60;;;1.60;;
2474;SDS011;1248;48.694;10.160;2023-02-21T11:09:34;2.97;;;1.50;;
2474;SDS011;1248;48.694;10.160;2023-02-21T11:12:05;2.60;;;1.73;;
2474;SDS011;1248;48.694;10.160;2023-02-21T11:14:43;6.70;;;1.70;;
2474;SDS011;1248;48.694;10.160;2023-02-21T11:17:16;5.87;;;1.90;;
2474;SDS011;1248;48.694;10.160;2023-02-21T11:19:46;3.07;;;1.43;;
2474;SDS011;1248;48.694;10.160;2023-02-21T11:22:15;5.20;;;1.60;;
2474;SDS011;1248;48.694;10.160;2023-02-21T11:24:45;2.20;;;1.40;;
2474;SDS011;1248;48.694;10.160;2023-02-21T11:27:14;1.67;;;1.30;;
2474;SDS011;1248;48.694;10.160;2023-02-21T11:29:42;8.10;;;2.03;;
2474;SDS011;1248;48.694;10.160;2023-02-21T11:32:10;3.10;;;1.50;;
2474;SDS011;1248;48.694;10.160;2023-02-21T11:34:39;2.50;;;1.60;;
2474;SDS011;1248;48.694;10.160;2023-02-21T11:37:13;3.40;;;1.70;;
2474;SDS011;1248;48.694;10.160;2023-02-21T11:39:40;1.70;;;1.60;;
2474;SDS011;1248;48.694;10.160;2023-02-21T11:42:24;2.37;;;1.40;;
2474;SDS011;1248;48.694;10.160;2023-02-21T11:45:03;3.30;;;1.43;;
2474;SDS011;1248;48.694;10.160;2023-02-21T11:47:37;3.83;;;2.20;;
2474;SDS011;1248;48.694;10.160;2023-02-21T11:50:10;2.27;;;1.57;;
2474;SDS011;1248;48.694;10.160;2023-02-21T11:52:42;2.57;;;1.73;;
2474;SDS011;1248;48.694;10.160;2023-02-21T11:55:12;2.10;;;1.50;;
2474;SDS011;1248;48.694;10.160;2023-02-21T11:57:43;2.40;;;1.67;;
2474;SDS011;1248;48.694;10.160;2023-02-21T12:00:16;4.77;;;1.60;;
2474;SDS011;1248;48.694;10.160;2023-02-21T12:02:55;3.87;;;1.37;;
2474;SDS011;1248;48.694;10.160;2023-02-21T12:05:30;3.03;;;1.20;;
2474;SDS011;1248;48.694;10.160;2023-02-21T12:08:10;1.77;;;1.40;;
2474;SDS011;1248;48.694;10.160;2023-02-21T12:10:48;2.13;;;1.60;;
2474;SDS011;1248;48.694;10.160;2023-02-21T12:13:20;2.90;;;1.60;;
2474;SDS011;1248;48.694;10.160;2023-02-21T12:15:55;3.30;;;1.30;;
2474;SDS011;1248;48.694;10.160;2023-02-21T12:18:32;2.20;;;1.23;;
2474;SDS011;1248;48.694;10.160;2023-02-21T12:21:16;4.67;;;1.63;;
2474;SDS011;1248;48.694;10.160;2023-02-21T12:24:10;2.80;;;1.50;;
2474;SDS011;1248;48.694;10.160;2023-02-21T12:26:49;2.10;;;1.30;;
2474;SDS011;1248;48.694;10.160;2023-02-21T12:29:23;2.57;;;1.50;;
2474;SDS011;1248;48.694;10.160;2023-02-21T12:32:14;2.50;;;1.40;;
2474;SDS011;1248;48.694;10.160;2023-02-21T12:34:53;3.10;;;1.53;;
2474;SDS011;1248;48.694;10.160;2023-02-21T12:37:28;3.60;;;1.30;;
2474;SDS011;1248;48.694;10.160;2023-02-21T12:40:03;4.73;;;1.57;;
2474;SDS011;1248;48.694;10.160;2023-02-21T12:42:42;1.70;;;1.30;;
2474;SDS011;1248;48.694;10.160;2023-02-21T12:45:21;4.07;;;1.50;;
2474;SDS011;1248;48.694;10.160;2023-02-21T12:48:01;1.80;;;1.10;;
2474;SDS011;1248;48.694;10.160;2023-02-21T12:50:32;5.33;;;1.73;;
2474;SDS011;1248;48.694;10.160;2023-02-21T12:53:04;1.40;;;1.10;;
2474;SDS011;1248;48.694;10.160;2023-02-21T12:55:35;2.03;;;1.30;;
2474;SDS011;1248;48.694;10.160;2023-02-21T12:58:09;2.30;;;1.20;;
2474;SDS011;1248;48.694;10.160;2023-02-21T13:00:40;2.90;;;1.20;;
2474;SDS011;1248;48.694;10.160;2023-02-21T13:03:11;4.93;;;1.40;;
2474;SDS011;1248;48.694;10.160;2023-02-21T13:05:49;1.90;;;1.20;;
2474;SDS011;1248;48.694;10.160;2023-02-21T13:08:20;2.07;;;1.30;;
2474;SDS011;1248;48.694;10.160;2023-02-21T13:10:51;1.90;;;1.30;;
2474;SDS011;1248;48.694;10.160;2023-02-21T13:13:20;1.70;;;1.13;;
2474;SDS011;1248;48.694;10.160;2023-02-21T13:15:51;1.30;;;1.20;;
2474;SDS011;1248;48.694;10.160;2023-02-21T13:18:20;1.30;;;0.90;;
2474;SDS011;1248;48.694;10.160;2023-02-21T13:20:51;3.20;;;1.30;;
2474;SDS011;1248;48.694;10.160;2023-02-21T13:26:31;2.57;;;1.40;;
2474;SDS011;1248;48.694;10.160;2023-02-21T13:29:09;4.10;;;1.83;;
2474;SDS011;1248;48.694;10.160;2023-02-21T13:31:41;4.83;;;1.43;;
2474;SDS011;1248;48.694;10.160;2023-02-21T13:34:11;2.40;;;1.33;;
2474;SDS011;1248;48.694;10.160;2023-02-21T13:36:40;2.97;;;1.40;;
2474;SDS011;1248;48.694;10.160;2023-02-21T13:39:11;2.80;;;1.20;;
2474;SDS011;1248;48.694;10.160;2023-02-21T13:41:40;3.50;;;1.50;;
2474;SDS011;1248;48.694;10.160;2023-02-21T13:44:10;2.33;;;1.33;;
2474;SDS011;1248;48.694;10.160;2023-02-21T13:49:45;3.47;;;1.70;;
2474;SDS011;1248;48.694;10.160;2023-02-21T14:01:12;2.47;;;1.50;;
2474;SDS011;1248;48.694;10.160;2023-02-21T14:03:41;5.87;;;1.63;;
2474;SDS011;1248;48.694;10.160;2023-02-21T14:09:08;2.33;;;1.40;;
2474;SDS011;1248;48.694;10.160;2023-02-21T14:11:38;3.40;;;2.00;;
2474;SDS011;1248;48.694;10.160;2023-02-21T14:16:59;1.83;;;1.50;;
2474;SDS011;1248;48.694;10.160;2023-02-21T14:19:31;3.10;;;2.00;;
2474;SDS011;1248;48.694;10.160;2023-02-21T14:22:03;4.57;;;1.60;;
2474;SDS011;1248;48.694;10.160;2023-02-21T14:24:35;3.20;;;1.60;;
2474;SDS011;1248;48.694;10.160;2023-02-21T14:27:04;3.07;;;1.50;;
2474;SDS011;1248;48.694;10.160;2023-02-21T14:30:21;3.50;;;1.70;;
2474;SDS011;1248;48.694;10.160;2023-02-21T14:35:45;2.10;;;1.60;;
2474;SDS011;1248;48.694;10.160;2023-02-21T14:38:23;1.77;;;1.40;;
2474;SDS011;1248;48.694;10.160;2023-02-21T14:40:55;3.73;;;2.03;;
2474;SDS011;1248;48.694;10.160;2023-02-21T14:43:31;3.13;;;1.57;;
2474;SDS011;1248;48.694;10.160;2023-02-21T14:52:40;3.10;;;1.70;;
2474;SDS011;1248;48.694;10.160;2023-02-21T14:55:26;4.13;;;2.17;;
2474;SDS011;1248;48.694;10.160;2023-02-21T14:58:04;2.13;;;1.90;;
2474;SDS011;1248;48.694;10.160;2023-02-21T15:00:41;3.17;;;1.80;;
2474;SDS011;1248;48.694;10.160;2023-02-21T15:03:14;1.97;;;1.50;;
2474;SDS011;1248;48.694;10.160;2023-02-21T15:05:46;3.50;;;1.70;;
2474;SDS011;1248;48.694;10.160;2023-02-21T15:08:25;2.00;;;1.57;;
2474;SDS011;1248;48.694;10.160;2023-02-21T15:10:55;4.47;;;2.07;;
2474;SDS011;1248;48.694;10.160;2023-02-21T15:13:25;2.87;;;1.40;;
2474;SDS011;1248;48.694;10.160;2023-02-21T15:15:55;2.80;;;1.70;;
2474;SDS011;1248;48.694;10.160;2023-02-21T15:18:23;2.57;;;1.80;;
2474;SDS011;1248;48.694;10.160;2023-02-21T15:21:00;2.83;;;1.60;;
2474;SDS011;1248;48.694;10.160;2023-02-21T15:23:30;2.57;;;1.50;;
2474;SDS011;1248;48.694;10.160;2023-02-21T15:26:00;4.30;;;2.10;;
2474;SDS011;1248;48.694;10.160;2023-02-21T15:28:28;2.97;;;1.60;;
2474;SDS011;1248;48.694;10.160;2023-02-21T15:30:57;2.23;;;1.50;;
2474;SDS011;1248;48.694;10.160;2023-02-21T15:33:26;3.70;;;1.93;;
2474;SDS011;1248;48.694;10.160;2023-02-21T15:35:55;3.00;;;1.77;;
2474;SDS011;1248;48.694;10.160;2023-02-21T15:38:26;2.27;;;2.00;;
2474;SDS011;1248;48.694;10.160;2023-02-21T15:40:58;2.07;;;1.87;;
2474;SDS011;1248;48.694;10.160;2023-02-21T15:43:33;4.00;;;1.70;;
2474;SDS011;1248;48.694;10.160;2023-02-21T15:46:05;2.30;;;1.57;;
2474;SDS011;1248;48.694;10.160;2023-02-21T15:48:34;5.57;;;1.60;;
2474;SDS011;1248;48.694;10.160;2023-02-21T15:51:02;3.57;;;1.57;;
2474;SDS011;1248;48.694;10.160;2023-02-21T15:53:30;3.00;;;1.80;;
2474;SDS011;1248;48.694;10.160;2023-02-21T15:59:08;2.60;;;1.70;;
2474;SDS011;1248;48.694;10.160;2023-02-21T16:01:37;3.40;;;1.80;;
2474;SDS011;1248;48.694;10.160;2023-02-21T16:04:17;2.80;;;1.90;;
2474;SDS011;1248;48.694;10.160;2023-02-21T16:06:47;3.87;;;2.30;;